Terminal Aerodrome Forecast
Issued by NWS Nashville, TN

Home | Current Version | Previous Version | Text Only | Print | Product List | Glossary On
Versions: 1 2 3 4 5 6 7 8 9 10 11 12 13 14 15 16 17 18 19 20 21 22
588
FTUS44 KOHX 122327
TAFBNA
TAF
KBNA 122327Z 1300/1324 34010G17KT P6SM BKN035
     FM130200 33009G16KT P6SM BKN035
     FM131200 36008KT P6SM BKN250=

USA.gov is the U.S. government's official web portal to all federal, state and local government web resources and services.